Latest Weather Observations for Macquarie Island

IDT60801

Issued at 10:41 am EST Friday 14 May 2021 (issued every 10 minutes, with the page automatically refreshed every 10 minutes)

About weather observations | Map of weather stations | Latest weather observations for TAS | Other Formats
Station Details ID: 300004 Name: MACQUARIE ISLAND Lat: -54.50 Lon: 158.94 Height: 6.0 m
Data from the previous 72 hours. | See also: Recent months at Macquarie Island
Date/Time
EST
Temp
°C
App
Temp
°C
Dew
Point
°C
Rel
Hum
%
Delta-T
°C
Wind Press
QNH
hPa
Press
MSL
hPa
Rain since
9am
mm
Dir  Spd
km/h
Gust
km/h
Spd
kts
Gust
kts
14/10:30am 4.4 -4.6 4.3 99 0.0 S 41 48 22 26 982.9 983.2 0.6
14/10:07am 5.3 -1.1 5.2 99 0.0 S 28 39 15 21 982.7 - 0.6
14/10:00am 6.4 3.1 6.3 99 0.0 SW 13 20 7 11 983.0 - 0.6
14/09:30am 6.4 1.0 6.3 99 0.0 W 24 30 13 16 982.9 - 0.4
14/09:00am 6.4 1.8 6.3 99 0.0 NW 20 24 11 13 982.7 983.0 14.0
14/08:30am 6.4 1.8 6.3 99 0.0 NNW 20 24 11 13 982.8 - 13.8
14/08:00am 6.4 1.8 6.3 99 0.0 NNW 20 24 11 13 982.8 - 13.8
14/07:30am 6.5 1.5 6.4 99 0.0 N 22 24 12 13 982.9 - 13.6
14/07:00am 6.5 1.1 6.4 99 0.0 N 24 30 13 16 983.0 - 13.4
14/06:30am 6.7 1.0 6.6 99 0.0 N 26 32 14 17 982.9 - 13.0
14/06:00am 6.7 0.6 6.6 99 0.0 NNW 28 33 15 18 983.1 983.4 13.0
14/05:30am 6.9 -0.1 6.8 99 0.0 N 33 39 18 21 983.5 - 13.0
14/05:00am 6.9 -0.5 6.8 99 0.0 N 35 41 19 22 983.7 - 12.6
14/04:30am 7.2 -1.6 7.1 99 0.0 N 43 48 23 26 984.2 - 12.6
14/04:00am 7.3 -1.7 7.2 99 0.0 N 44 50 24 27 984.4 - 12.2
14/03:30am 7.3 -2.1 7.2 99 0.0 N 46 54 25 29 984.9 - 12.0
14/03:00am 7.3 -2.1 7.2 99 0.0 N 46 54 25 29 985.4 985.7 11.8
14/02:30am 7.3 -2.8 7.2 99 0.0 N 50 59 27 32 986.0 - 11.8
14/02:00am 7.4 -2.7 7.3 99 0.0 N 50 59 27 32 986.3 - 11.8
14/01:30am 7.4 -2.7 7.3 99 0.0 N 50 57 27 31 986.9 - 11.8
14/01:00am 7.4 -3.5 7.3 99 0.0 N 54 61 29 33 987.2 - 11.6
14/12:30am 7.4 -2.7 7.3 99 0.0 NNW 50 59 27 32 987.7 - 11.6
14/12:00am 7.4 -3.2 7.1 98 0.1 NNW 52 61 28 33 988.2 988.5 11.4
 
Date/Time
EST
Temp
°C
App
Temp
°C
Dew
Point
°C
Rel
Hum
%
Delta-T
°C
Wind Press
QNH
hPa
Press
MSL
hPa
Rain since
9am
mm
Dir  Spd
km/h
Gust
km/h
Spd
kts
Gust
kts
13/11:30pm 7.5 -4.0 7.2 98 0.1 NNW 57 69 31 37 988.5 - 11.4
13/11:00pm 7.8 -4.4 7.5 98 0.1 NNW 61 70 33 38 988.4 - 11.4
13/10:30pm 7.7 -5.6 7.4 98 0.1 N 67 80 36 43 988.6 - 11.4
13/10:00pm 7.6 -6.3 7.3 98 0.1 N 70 85 38 46 988.8 - 11.2
13/09:37pm 7.7 -6.2 7.4 98 0.1 N 70 89 38 48 989.0 - 10.6
13/09:30pm 7.5 -6.3 7.2 98 0.1 N 69 83 37 45 989.3 - 10.0
13/09:00pm 7.5 -5.9 7.2 98 0.1 N 67 80 36 43 989.7 990.0 9.4
13/08:30pm 7.5 -5.5 7.2 98 0.1 N 65 78 35 42 990.3 - 9.0
13/08:00pm 7.5 -6.3 7.1 97 0.2 N 69 80 37 43 990.9 - 8.0
13/07:30pm 7.3 -5.7 7.0 98 0.1 NNW 65 78 35 42 991.5 - 7.8
13/07:00pm 7.4 -6.4 7.1 98 0.1 NNW 69 80 37 43 991.7 - 7.2
13/06:30pm 7.3 -6.5 7.0 98 0.1 N 69 87 37 47 992.3 - 6.6
13/06:18pm 7.5 -7.2 7.2 98 0.1 N 74 93 40 50 992.0 - 6.0
13/06:00pm 7.6 -6.1 7.3 98 0.1 N 69 85 37 46 992.4 992.7 4.6
13/05:30pm 7.3 -5.7 7.0 98 0.1 NNW 65 80 35 43 993.4 - 2.8
13/05:00pm 7.5 -5.9 6.9 96 0.3 N 67 80 36 43 994.0 - 0.4
13/04:30pm 7.7 -6.1 7.1 96 0.3 N 69 85 37 46 993.9 - 0.0
13/04:00pm 7.5 -5.6 6.9 96 0.3 N 65 76 35 41 994.7 - 0.0
13/03:30pm 7.5 -6.3 6.8 95 0.3 N 69 82 37 44 995.0 - 0.0
13/03:00pm 7.5 -6.0 6.6 94 0.4 N 67 83 36 45 995.5 995.8 0.0
13/02:30pm 7.4 -5.8 6.5 94 0.4 N 65 83 35 45 996.1 - 0.0
13/02:00pm 7.3 -6.3 6.4 94 0.4 N 67 78 36 42 996.6 - 0.0
13/01:30pm 7.5 -6.5 6.3 92 0.5 N 69 80 37 43 997.1 - 0.0
13/01:00pm 7.4 -5.8 6.2 92 0.5 N 65 78 35 42 997.7 - 0.0
13/12:30pm 7.4 -6.2 6.0 91 0.6 NNW 67 78 36 42 998.3 - 0.0
13/12:00pm 7.4 -6.2 6.0 91 0.6 N 67 80 36 43 998.8 999.1 0.0
13/11:30am 7.5 -5.8 6.0 90 0.7 NNW 65 76 35 41 999.3 - 0.0
13/11:00am 7.6 -5.3 5.7 88 0.9 NNW 63 76 34 41 1000.2 - 0.0
13/10:30am 7.6 -5.0 5.7 88 0.9 NNW 61 69 33 37 1001.0 - 0.0
13/10:00am 7.3 -5.6 5.9 91 0.6 NNW 63 85 34 46 1001.7 - 0.0
13/09:56am 7.4 -6.3 5.9 90 0.7 NNW 67 85 36 46 1001.6 - 0.0
13/09:30am 7.5 -6.5 6.0 90 0.7 NNW 69 80 37 43 1001.5 - 0.0
13/09:00am 7.5 -6.2 5.8 89 0.8 NNW 67 78 36 42 1001.9 1002.2 0.0
13/08:30am 7.7 -6.4 5.5 86 1.0 NNW 69 83 37 45 1001.9 - 0.0
13/08:00am 7.9 -6.2 5.4 84 1.1 NNW 69 80 37 43 1002.0 - 0.0
13/07:30am 7.8 -6.3 5.4 85 1.1 NNW 69 83 37 45 1002.1 - 0.0
13/07:00am 7.6 -6.1 5.6 87 0.9 NNW 67 82 36 44 1002.3 - 0.0
13/06:30am 7.6 -6.7 5.6 87 0.9 NNW 70 80 38 43 1002.2 - 0.0
13/06:00am 7.5 -6.6 5.6 88 0.9 NNW 69 82 37 44 1002.2 1002.5 0.0
13/05:44am 7.6 -6.5 5.7 88 0.9 NNW 69 87 37 47 1002.1 - 0.0
13/05:30am 7.6 -6.5 5.7 88 0.9 NNW 69 83 37 45 1002.3 - 0.0
13/05:00am 7.5 -6.6 5.6 88 0.8 NNW 69 80 37 43 1002.7 - 0.0
13/04:30am 7.5 -6.2 5.5 87 0.9 NNW 67 78 36 42 1003.0 - 0.0
13/04:01am 7.6 -6.2 5.4 86 1.0 NNW 67 85 36 46 1003.2 - 0.0
13/04:00am 7.7 -6.4 5.5 86 1.0 NNW 69 85 37 46 1003.2 - 0.0
13/03:30am 7.6 -6.2 5.2 85 1.1 NNW 67 87 36 47 1003.5 - 0.0
13/03:07am 7.6 -6.5 5.4 86 1.0 NNW 69 87 37 47 1003.7 - 0.0
13/03:00am 7.6 -6.2 5.4 86 1.0 NNW 67 83 36 45 1003.8 1004.1 0.0
13/02:30am 7.6 -6.2 5.4 86 1.0 NNW 67 83 36 45 1003.9 - 0.0
13/02:14am 7.6 -5.8 5.4 86 1.0 NNW 65 83 35 45 1004.0 - 0.0
13/02:00am 7.5 -5.9 5.5 87 0.9 NNW 65 80 35 43 1004.2 - 0.0
13/01:30am 7.4 -5.2 5.5 88 0.8 NNW 61 76 33 41 1004.4 - 0.0
13/01:00am 7.5 -4.7 5.5 87 0.9 NNW 59 78 32 42 1004.8 - 0.0
13/12:30am 7.3 -5.7 5.4 88 0.8 NNW 63 82 34 44 1004.9 - 0.0
13/12:29am 7.3 -5.7 5.4 88 0.8 NNW 63 82 34 44 1005.0 - 0.0
13/12:00am 7.2 -5.5 5.2 87 0.9 NNW 61 74 33 40 1005.4 1005.7 0.0
 
Date/Time
EST
Temp
°C
App
Temp
°C
Dew
Point
°C
Rel
Hum
%
Delta-T
°C
Wind Press
QNH
hPa
Press
MSL
hPa
Rain since
9am
mm
Dir  Spd
km/h
Gust
km/h
Spd
kts
Gust
kts
12/11:35pm 7.4 -5.3 5.0 85 1.1 NW 61 80 33 43 1005.4 - 0.0
12/11:30pm 7.3 -5.8 4.9 85 1.1 NNW 63 78 34 42 1005.4 - 0.0
12/11:00pm 7.4 -6.5 4.9 84 1.1 NW 67 89 36 48 1005.4 - 0.0
12/10:30pm 7.2 -5.9 5.2 87 0.9 NNW 63 82 34 44 1005.9 - 0.0
12/10:11pm 7.2 -5.1 5.3 88 0.8 NNW 59 78 32 42 1006.2 - 0.0
12/10:00pm 7.1 -5.5 5.4 89 0.8 NNW 61 74 33 40 1006.3 - 0.0
12/09:43pm 7.1 -5.6 5.3 88 0.8 NNW 61 80 33 43 1006.4 - 0.0
12/09:30pm 7.2 -5.5 5.2 87 0.9 NNW 61 78 33 42 1006.4 - 0.0
12/09:00pm 7.3 -5.8 5.1 86 1.0 NW 63 91 34 49 1006.6 1006.9 0.0
12/08:34pm 7.1 -5.9 5.3 88 0.8 NNW 63 82 34 44 1006.7 - 0.0
12/08:30pm 7.1 -6.3 5.3 88 0.8 NNW 65 78 35 42 1006.8 - 0.0
12/08:00pm 7.0 -5.6 5.5 90 0.7 NNW 61 76 33 41 1007.2 - 0.0
12/07:33pm 7.0 -5.2 5.6 91 0.6 NNW 59 82 32 44 1007.2 - 0.0
12/07:30pm 6.9 -5.3 5.5 91 0.6 NNW 59 76 32 41 1007.3 - 0.0
12/07:23pm 6.9 -4.9 5.5 91 0.6 NNW 57 76 31 41 1007.3 - 0.0
12/07:00pm 6.8 -4.8 5.6 92 0.5 NNW 56 69 30 37 1007.6 - 0.0
12/06:45pm 6.9 -4.7 5.7 92 0.5 NNW 56 76 30 41 1007.7 - 0.0
12/06:30pm 6.8 -5.0 5.7 93 0.5 NNW 57 69 31 37 1007.8 - 0.0
12/06:10pm 7.0 -4.8 5.6 91 0.6 NW 57 76 31 41 1007.9 - 0.0
12/06:00pm 7.0 -5.2 5.5 90 0.7 NW 59 74 32 40 1008.0 1008.3 0.0
12/05:39pm 7.0 -4.3 5.5 90 0.7 NW 54 72 29 39 1008.0 - 0.0
12/05:30pm 6.8 -4.5 5.4 91 0.6 NW 54 67 29 36 1008.1 - 0.0
12/05:02pm 6.8 -4.9 5.4 91 0.6 NW 56 74 30 40 1008.4 - 0.0
12/05:00pm 6.8 -5.1 5.3 90 0.7 NW 57 74 31 40 1008.4 - 0.0
12/04:30pm 6.8 -4.5 5.4 91 0.6 NW 54 72 29 39 1008.5 - 0.0
12/04:00pm 6.8 -4.9 5.3 90 0.7 NW 56 74 30 40 1008.8 - 0.0
12/03:48pm 6.7 -4.6 5.3 91 0.6 NW 54 72 29 39 1008.8 - 0.0
12/03:30pm 6.7 -5.6 5.2 90 0.7 NW 59 72 32 39 1008.8 - 0.0
12/03:00pm 6.8 -6.2 5.3 90 0.7 NW 63 80 34 43 1009.0 1009.3 0.0
12/02:30pm 6.6 -5.3 5.2 91 0.6 NW 57 76 31 41 1009.3 - 0.0
12/02:01pm 6.9 -6.6 5.1 88 0.8 NW 65 83 35 45 1009.2 - 0.0
12/02:00pm 6.9 -6.6 5.1 88 0.8 NW 65 78 35 42 1009.3 - 0.0
12/01:41pm 6.8 -5.2 5.0 88 0.8 NW 57 76 31 41 1009.5 - 0.0
12/01:30pm 6.8 -6.3 5.1 89 0.7 NW 63 74 34 40 1009.7 - 0.0
12/01:00pm 7.0 -6.5 4.8 86 1.0 NW 65 83 35 45 1009.9 - 0.0
12/12:40pm 7.0 -6.5 4.7 85 1.0 NW 65 83 35 45 1009.8 - 0.0
12/12:30pm 7.0 -6.9 4.8 86 1.0 NW 67 78 36 42 1010.0 - 0.0
12/12:00pm 7.0 -5.8 4.7 85 1.0 NW 61 82 33 44 1010.2 1010.5 0.0
12/11:32am 7.0 -6.2 4.7 85 1.0 NW 63 82 34 44 1010.5 - 0.0
12/11:30am 7.0 -6.6 4.5 84 1.1 NW 65 82 35 44 1010.5 - 0.0
12/11:11am 7.0 -5.4 4.7 85 1.0 NW 59 78 32 42 1010.6 - 0.0
12/11:00am 6.9 -6.3 4.6 85 1.0 NW 63 76 34 41 1010.7 - 0.0
12/10:30am 6.8 -6.4 4.6 86 1.0 NW 63 80 34 43 1011.1 - 0.0
12/10:00am 6.7 -6.9 4.5 86 1.0 NW 65 76 35 41 1011.4 - 0.0
12/09:30am 6.8 -7.6 4.3 84 1.1 NW 69 83 37 45 1011.2 - 0.0
12/09:00am 6.7 -6.9 4.2 84 1.1 NW 65 80 35 43 1011.4 1011.7 0.8
12/08:30am 6.6 -7.4 4.1 84 1.1 NW 67 82 36 44 1011.2 - 0.8
12/08:00am 6.5 -7.6 3.8 83 1.1 NW 67 82 36 44 1011.4 - 0.8
12/07:39am 6.3 -7.4 3.8 84 1.1 NW 65 83 35 45 1011.4 - 0.8
12/07:30am 6.3 -7.4 4.0 85 1.0 NW 65 78 35 42 1011.6 - 0.8
12/07:00am 6.3 -8.2 3.6 83 1.1 NW 69 87 37 47 1011.4 - 0.8
12/06:52am 6.2 -7.6 3.5 83 1.1 NW 65 85 35 46 1011.5 - 0.8
12/06:30am 6.3 -7.8 3.5 82 1.2 NW 67 82 36 44 1011.5 - 0.8
12/06:25am 6.3 -7.5 3.5 82 1.2 NW 65 83 35 45 1011.5 - 0.8
12/06:00am 6.1 -8.1 3.4 83 1.1 NW 67 80 36 43 1011.8 1012.1 0.8
12/05:43am 6.0 -8.6 3.2 82 1.2 NW 69 87 37 47 1011.6 - 0.8
12/05:30am 5.9 -7.5 3.4 84 1.0 NW 63 76 34 41 1011.9 - 0.8
12/05:00am 5.8 -8.4 3.0 82 1.2 NW 67 80 36 43 1012.0 - 0.8
12/04:30am 5.5 -7.9 3.2 85 1.0 NW 63 78 34 42 1012.3 - 0.8
12/04:07am 5.4 -8.5 2.6 82 1.1 NW 65 83 35 45 1012.3 - 0.8
12/04:00am 5.5 -8.8 2.7 82 1.1 NW 67 82 36 44 1012.5 - 0.8
12/03:30am 4.8 -8.4 2.5 85 0.9 NW 61 72 33 39 1012.7 - 0.8
12/03:26am 4.6 -9.0 2.5 86 0.8 NW 63 82 34 44 1012.8 - 0.8
12/03:00am 4.8 -9.6 2.0 82 1.1 NW 67 78 36 42 1012.9 1013.2 0.8
12/02:42am 4.8 -8.9 1.5 79 1.3 NW 63 85 34 46 1013.0 - 0.8
12/02:30am 4.8 -8.5 2.0 82 1.1 NW 61 72 33 39 1013.3 - 0.8
12/02:00am 4.3 -9.0 1.5 82 1.1 NW 61 69 33 37 1013.7 - 0.8
12/01:30am 4.2 -10.2 1.7 84 1.0 NW 67 78 36 42 1014.0 - 0.8
12/01:01am 4.1 -8.3 1.5 83 1.0 WNW 56 78 30 42 1014.3 - 0.8
12/01:00am 4.1 -8.3 1.3 82 1.1 WNW 56 69 30 37 1014.3 - 0.8
12/12:30am 4.1 -9.3 1.1 81 1.2 WNW 61 70 33 38 1014.9 - 0.8
12/12:00am 3.8 -7.5 1.4 84 0.9 WNW 50 65 27 35 1014.9 1015.2 0.8
 
Date/Time
EST
Temp
°C
App
Temp
°C
Dew
Point
°C
Rel
Hum
%
Delta-T
°C
Wind Press
QNH
hPa
Press
MSL
hPa
Rain since
9am
mm
Dir  Spd
km/h
Gust
km/h
Spd
kts
Gust
kts
11/11:30pm 4.0 -9.2 0.0 75 1.5 WNW 59 70 32 38 1015.0 - 0.6
11/11:00pm 3.9 -8.4 -0.3 74 1.6 WNW 54 61 29 33 1015.1 - 0.6
11/10:30pm 3.0 -8.4 0.6 84 0.9 WNW 50 69 27 37 1015.3 - 0.6
11/10:00pm 2.9 -9.7 0.1 82 1.0 WNW 56 74 30 40 1015.2 - 0.6
11/09:30pm 3.9 -6.8 -0.1 75 1.5 WNW 46 65 25 35 1015.3 - 0.6
11/09:00pm 3.6 -7.3 -1.2 71 1.7 WNW 46 57 25 31 1015.2 1015.5 0.6
11/08:30pm 3.5 -7.4 -0.9 73 1.6 WNW 46 59 25 32 1015.0 - 0.6
11/08:00pm 3.1 -8.2 -1.1 74 1.5 WNW 48 61 26 33 1014.8 - 0.6
11/07:30pm 2.6 -7.4 0.8 88 0.7 WNW 43 57 23 31 1014.7 - 0.6
11/07:14pm 2.2 -7.1 0.4 88 0.7 W 39 57 21 31 1014.7 - 0.6
11/07:00pm 3.2 -7.8 0.8 84 0.9 WNW 48 59 26 32 1014.8 - 0.6
11/06:30pm 2.3 -6.3 0.0 85 0.8 W 35 50 19 27 1014.4 - 0.6
11/06:22pm 1.9 -7.9 -0.2 86 0.8 W 41 59 22 32 1014.5 - 0.6
11/06:00pm 2.3 -9.2 -0.1 84 0.9 W 50 63 27 34 1014.5 1014.8 0.6
11/05:30pm 2.8 -8.7 0.0 82 1.0 W 50 63 27 34 1014.0 - 0.6
11/05:00pm 2.5 -7.6 0.6 87 0.7 WNW 43 54 23 29 1013.8 - 0.6
11/04:53pm 2.5 -7.2 0.2 85 0.9 W 41 59 22 32 1013.7 - 0.6
11/04:30pm 3.1 -7.9 -2.0 69 1.8 W 46 59 25 32 1013.7 - 0.6
11/04:07pm 2.7 -6.9 -1.6 73 1.5 W 39 57 21 31 1013.5 - 0.6
11/04:00pm 2.5 -7.8 -0.8 79 1.2 W 43 52 23 28 1013.5 - 0.6
11/03:43pm 2.6 -7.7 -0.8 78 1.2 W 43 65 23 35 1013.3 - 0.4
11/03:30pm 3.0 -6.6 -1.5 72 1.6 W 39 48 21 26 1013.2 - 0.4
11/03:00pm 2.9 -6.1 -2.8 66 2.0 W 35 56 19 30 1012.7 1013.0 0.4
11/02:30pm 2.9 -7.3 -3.4 63 2.1 W 41 59 22 32 1012.4 - 0.4
11/02:00pm 2.5 -5.4 -1.3 76 1.4 W 30 54 16 29 1012.2 - 0.4
11/01:58pm 2.4 -4.4 -1.6 75 1.4 WSW 24 43 13 23 1012.3 - 0.4
11/01:54pm 2.8 -6.4 -1.2 75 1.4 W 37 57 20 31 1011.8 - 0.4
11/01:30pm 2.5 -4.6 -1.5 75 1.4 WSW 26 52 14 28 1011.5 - 0.4
11/01:23pm 2.9 -4.7 -1.8 71 1.7 W 28 52 15 28 1011.2 - 0.4
11/01:00pm 2.7 -5.3 -2.0 71 1.6 WSW 30 43 16 23 1011.0 - 0.4
11/12:30pm 3.4 -4.1 -1.2 72 1.7 W 28 50 15 27 1010.5 - 0.4
11/12:00pm 3.4 -4.5 -1.9 68 1.9 W 30 48 16 26 1010.0 1010.3 0.4
11/11:30am 2.6 -5.5 -3.1 66 1.9 WSW 30 48 16 26 1009.7 - 0.4
11/11:00am 2.8 -4.2 -3.5 63 2.1 WSW 24 48 13 26 1009.2 - 0.4

Other formats

Comma delimited format used in spreadsheet applications
http://www.bom.gov.au/fwo/IDT60801/IDT60801.94998.axf

JavaScript Object Notation format (JSON) in row-major order
http://www.bom.gov.au/fwo/IDT60801/IDT60801.94998.json

Data quality

Most of these data are generated automatically and are frequently updated. Quality checks on data are not normally performed. It is possible for incorrect values to appear. Refer to information at About Latest Weather Observations and please check the disclaimer before using these data.